createdAt,value
2024-05-09T00:00:52.936Z,100771.78
2024-05-09T00:03:23.808Z,100776.72
2024-05-09T00:05:54.933Z,100769.66
2024-05-09T00:08:25.937Z,100778.31
2024-05-09T00:10:57.153Z,100782.44
2024-05-09T00:13:28.048Z,100781.06
2024-05-09T00:15:59.449Z,100772.72
2024-05-09T00:18:30.282Z,100778.28
2024-05-09T00:21:01.886Z,100782.19
2024-05-09T00:23:33.069Z,100792.41
2024-05-09T00:26:04.640Z,100785.91
2024-05-09T00:28:35.514Z,100794.66
2024-05-09T00:31:06.845Z,100800.69
2024-05-09T00:33:38.094Z,100800.69
2024-05-09T00:36:09.366Z,100800.81
2024-05-09T00:38:40.915Z,100811.22
2024-05-09T00:41:12.033Z,100812.50
2024-05-09T00:43:42.919Z,100815.56
2024-05-09T00:46:14.087Z,100822.63
2024-05-09T00:48:45.112Z,100828.66
2024-05-09T00:51:16.841Z,100833.63
2024-05-09T00:53:48.748Z,100840.28
2024-05-09T00:56:23.006Z,100831.88
2024-05-09T00:58:54.693Z,100839.50
2024-05-09T01:01:26.558Z,100839.84
2024-05-09T01:03:58.233Z,100845.06
2024-05-09T01:06:29.501Z,100847.06
2024-05-09T01:09:00.725Z,100853.31
2024-05-09T01:11:42.063Z,100857.84
2024-05-09T01:14:13.272Z,100855.34
2024-05-09T01:16:44.783Z,100869.44
2024-05-09T01:19:24.233Z,100839.63
2024-05-09T01:21:55.548Z,100857.41
2024-05-09T01:24:26.628Z,100868.06
2024-05-09T01:26:57.994Z,100875.75
2024-05-09T01:29:29.073Z,100865.00
2024-05-09T01:32:05.879Z,100870.81
2024-05-09T01:34:37.773Z,100870.34
2024-05-09T01:37:09.151Z,100876.13
2024-05-09T01:39:40.854Z,100882.75
2024-05-09T01:42:12.150Z,100882.28
2024-05-09T01:44:44.932Z,100870.13
2024-05-09T01:47:16.417Z,100875.91
2024-05-09T01:49:47.488Z,100871.66
2024-05-09T01:52:18.723Z,100867.63
2024-05-09T01:54:49.786Z,100870.78
2024-05-09T01:57:21.137Z,100865.06
2024-05-09T01:59:53.084Z,100859.53
2024-05-09T02:02:24.420Z,100860.13
2024-05-09T02:04:55.576Z,100850.53
2024-05-09T02:07:27.351Z,100864.16
2024-05-09T02:09:58.332Z,100858.25
2024-05-09T02:12:29.672Z,100851.50
2024-05-09T02:15:00.696Z,100848.53
2024-05-09T02:17:32.190Z,100856.81
2024-05-09T02:20:03.670Z,100857.97
2024-05-09T02:22:37.258Z,100853.72
2024-05-09T02:25:08.467Z,100849.94
2024-05-09T02:27:39.685Z,100839.06
2024-05-09T02:30:18.909Z,100848.16
2024-05-09T02:32:57.543Z,100856.47
2024-05-09T02:35:29.140Z,100849.72
2024-05-09T02:38:01.413Z,100855.25
2024-05-09T02:40:37.726Z,100851.25
2024-05-09T02:43:13.403Z,100857.28
2024-05-09T02:45:44.563Z,100858.44
2024-05-09T02:48:16.097Z,100863.06
2024-05-09T02:50:47.179Z,100827.25
2024-05-09T02:53:19.003Z,100855.13
2024-05-09T02:55:50.062Z,100860.91
2024-05-09T02:58:21.609Z,100851.97
2024-05-09T03:00:52.792Z,100865.38
2024-05-09T03:03:24.490Z,100865.84
2024-05-09T03:05:55.604Z,100866.06
2024-05-09T03:08:29.007Z,100861.19
2024-05-09T03:11:02.486Z,100857.16
2024-05-09T03:13:33.835Z,100851.22
2024-05-09T03:16:05.018Z,100848.03
2024-05-09T03:18:36.409Z,100843.53
2024-05-09T03:21:07.763Z,100839.50
2024-05-09T03:23:44.955Z,100837.75
2024-05-09T03:26:17.805Z,100837.94
2024-05-09T03:28:49.174Z,100823.34
2024-05-09T03:31:20.884Z,100823.13
2024-05-09T03:33:52.463Z,100823.44
2024-05-09T03:36:23.987Z,100821.31
2024-05-09T03:38:55.153Z,100812.28
2024-05-09T03:41:26.746Z,100808.94
2024-05-09T03:43:58.129Z,100810.56
2024-05-09T03:46:31.799Z,100818.84
2024-05-09T03:49:03.260Z,100816.69
2024-05-09T03:51:34.742Z,100813.72
2024-05-09T03:54:06.339Z,100812.41
2024-05-09T03:56:37.869Z,100818.34
2024-05-09T03:59:09.230Z,100820.69
2024-05-09T04:01:40.477Z,100809.28
2024-05-09T04:04:12.435Z,100805.84
2024-05-09T04:06:44.700Z,100805.56
2024-05-09T04:09:17.627Z,100795.03
2024-05-09T04:11:48.790Z,100798.06
2024-05-09T04:14:21.524Z,100801.38
2024-05-09T04:16:52.791Z,100804.66
2024-05-09T04:19:26.826Z,100801.03
2024-05-09T04:21:57.908Z,100785.03
2024-05-09T04:24:29.231Z,100786.50
2024-05-09T04:27:02.737Z,100793.91
2024-05-09T04:29:37.519Z,100796.72
2024-05-09T04:32:09.718Z,100771.09
2024-05-09T04:34:43.591Z,100772.28
2024-05-09T04:37:18.440Z,100766.31
2024-05-09T04:39:50.085Z,100752.22
2024-05-09T04:42:23.009Z,100731.63
2024-05-09T04:44:58.292Z,100745.19
2024-05-09T04:47:30.230Z,100734.28
2024-05-09T04:50:01.883Z,100736.81
2024-05-09T04:52:33.081Z,100739.25
2024-05-09T04:55:04.450Z,100705.94
2024-05-09T04:57:35.528Z,100725.16
2024-05-09T05:00:14.330Z,100723.56
2024-05-09T05:02:48.994Z,100729.59
2024-05-09T05:05:23.367Z,100725.25
2024-05-09T05:07:54.473Z,100716.03
2024-05-09T05:10:29.697Z,100720.81
2024-05-09T05:13:24.139Z,100705.72
2024-05-09T05:15:59.707Z,100699.75
2024-05-09T05:18:31.321Z,100710.41
2024-05-09T05:21:03.429Z,100702.53
2024-05-09T05:23:35.879Z,100684.03
2024-05-09T05:26:07.650Z,100669.28
2024-05-09T05:28:38.799Z,100668.84
2024-05-09T05:31:10.255Z,100665.56
2024-05-09T05:33:41.537Z,100653.34
2024-05-09T05:36:12.582Z,100640.19
2024-05-09T05:38:44.018Z,100647.72
2024-05-09T05:41:15.610Z,100638.44
2024-05-09T05:43:47.450Z,100630.81
2024-05-09T05:46:18.844Z,100623.97
2024-05-09T05:48:50.108Z,100622.66
2024-05-09T05:51:21.685Z,100617.50
2024-05-09T05:53:52.818Z,100617.81
2024-05-09T05:56:24.210Z,100617.84
2024-05-09T05:58:55.508Z,100630.41
2024-05-09T06:01:27.202Z,100619.53
2024-05-09T06:03:58.511Z,100625.00
2024-05-09T06:06:30.293Z,100610.28
2024-05-09T06:09:01.444Z,100621.81
2024-05-09T06:11:33.271Z,100615.53
2024-05-09T06:14:06.770Z,100616.63
2024-05-09T06:16:38.493Z,100609.78
2024-05-09T06:19:09.640Z,100611.16
2024-05-09T06:21:40.537Z,100608.66
2024-05-09T06:24:11.574Z,100620.22
2024-05-09T06:26:46.127Z,100626.66
2024-05-09T06:29:17.311Z,100631.47
2024-05-09T06:31:48.759Z,100585.28
2024-05-09T06:34:34.247Z,100582.56
2024-05-09T06:37:06.390Z,100592.69
2024-05-09T06:39:37.802Z,100592.94
2024-05-09T06:42:11.596Z,100594.06
2024-05-09T06:44:42.649Z,100598.63
2024-05-09T06:47:14.103Z,100593.22
2024-05-09T06:49:45.418Z,100560.97
2024-05-09T06:52:20.110Z,100559.91
2024-05-09T06:54:52.233Z,100559.63
2024-05-09T06:57:24.554Z,100553.06
2024-05-09T06:59:57.888Z,100547.03
2024-05-09T07:02:29.594Z,100539.38
2024-05-09T07:05:00.935Z,100536.56
2024-05-09T07:07:32.687Z,100548.84
2024-05-09T07:10:04.084Z,100543.09
2024-05-09T07:12:38.856Z,100536.53
2024-05-09T07:15:10.129Z,100540.06
2024-05-09T07:17:44.438Z,100531.84
2024-05-09T07:20:27.622Z,100528.84
2024-05-09T07:23:05.567Z,100512.94
2024-05-09T07:25:37.962Z,100518.41
2024-05-09T07:28:16.764Z,100493.78
2024-05-09T07:30:48.415Z,100499.22
2024-05-09T07:33:24.616Z,100501.97
2024-05-09T07:35:59.148Z,100496.47
2024-05-09T07:38:30.784Z,100487.41
2024-05-09T07:41:02.668Z,100476.50
2024-05-09T07:43:34.061Z,100478.09
2024-05-09T07:47:04.545Z,100480.00
2024-05-09T07:50:35.594Z,100472.59
2024-05-09T07:53:20.375Z,100474.50
2024-05-09T07:54:41.136Z,100465.19
2024-05-09T07:57:12.605Z,100461.94
2024-05-09T07:59:45.482Z,100463.25
2024-05-09T08:02:17.050Z,100451.22
2024-05-09T08:04:48.814Z,100444.69
2024-05-09T08:07:21.474Z,100441.66
2024-05-09T08:09:53.009Z,100435.63
2024-05-09T08:12:24.328Z,100432.38
2024-05-09T08:14:57.675Z,100430.16
2024-05-09T08:17:28.904Z,100435.09
2024-05-09T08:20:02.030Z,100430.16
2024-05-09T08:22:37.607Z,100435.63
2024-05-09T08:25:10.707Z,100444.84
2024-05-09T08:27:43.934Z,100435.03
2024-05-09T08:30:21.962Z,100425.25
2024-05-09T08:33:05.985Z,100422.50
2024-05-09T08:35:38.422Z,100413.75
2024-05-09T08:38:11.059Z,100421.94
2024-05-09T08:40:43.810Z,100406.63
2024-05-09T08:43:18.122Z,100406.63
2024-05-09T08:45:52.718Z,100358.34
2024-05-09T08:48:25.953Z,100414.81
2024-05-09T08:51:00.572Z,100413.19
2024-05-09T08:53:31.614Z,100422.47
2024-05-09T08:56:04.147Z,100386.00
2024-05-09T08:58:38.402Z,100423.53
2024-05-09T09:01:10.564Z,100435.53
2024-05-09T09:03:43.382Z,100440.44
2024-05-09T09:06:16.913Z,100435.53
2024-05-09T09:08:49.352Z,100446.69
2024-05-09T09:11:23.642Z,100456.00
2024-05-09T09:13:55.895Z,100463.34
2024-05-09T09:16:38.766Z,100473.69
2024-05-09T09:19:10.082Z,100483.25
2024-05-09T09:21:41.952Z,100508.03
2024-05-09T09:24:13.286Z,100505.78
2024-05-09T09:26:47.273Z,100503.00
2024-05-09T09:29:22.315Z,100474.41
2024-05-09T09:32:09.852Z,100506.22
2024-05-09T09:34:42.302Z,100510.31
2024-05-09T09:37:13.942Z,100510.31
2024-05-09T09:39:48.922Z,100516.56
2024-05-09T09:42:22.506Z,100519.84
2024-05-09T09:45:02.226Z,100533.22
2024-05-09T09:47:41.267Z,100524.19
2024-05-09T09:50:20.359Z,100519.03
2024-05-09T09:52:56.553Z,100522.84
2024-05-09T09:55:29.887Z,100516.25
2024-05-09T09:58:02.347Z,100505.66
2024-05-09T10:00:34.447Z,100517.09
2024-05-09T10:03:06.681Z,100518.97
2024-05-09T10:05:39.818Z,100529.31
2024-05-09T10:08:13.942Z,100531.22
2024-05-09T10:10:49.713Z,100520.28
2024-05-09T10:13:21.544Z,100533.44
2024-05-09T10:15:56.106Z,100536.72
2024-05-09T10:18:41.893Z,100534.44
2024-05-09T10:21:22.892Z,100548.66
2024-05-09T10:24:07.002Z,100555.69
2024-05-09T10:26:40.126Z,100573.75
2024-05-09T10:29:19.386Z,100514.69
2024-05-09T10:31:50.658Z,100570.97
2024-05-09T10:34:24.834Z,100553.16
2024-05-09T10:36:56.590Z,100581.34
2024-05-09T10:39:28.889Z,100577.56
2024-05-09T10:42:00.229Z,100579.72
2024-05-09T10:44:32.098Z,100587.31
2024-05-09T10:47:04.092Z,100595.25
2024-05-09T10:49:35.651Z,100588.34
2024-05-09T10:52:09.904Z,100591.63
2024-05-09T10:54:42.195Z,100604.69
2024-05-09T10:57:13.338Z,100602.19
2024-05-09T10:59:44.768Z,100607.19
2024-05-09T11:02:17.852Z,100609.63
2024-05-09T11:04:49.552Z,100600.81
2024-05-09T11:07:23.105Z,100598.47
2024-05-09T11:09:55.439Z,100634.91
2024-05-09T11:12:26.683Z,100647.13
2024-05-09T11:14:58.088Z,100654.78
2024-05-09T11:17:29.344Z,100660.75
2024-05-09T11:20:01.719Z,100676.03
2024-05-09T11:22:36.143Z,100685.84
2024-05-09T11:25:08.059Z,100674.38
2024-05-09T11:27:38.602Z,100677.03
2024-05-09T11:30:27.023Z,100644.72
2024-05-09T11:33:03.095Z,100683.03
2024-05-09T11:36:06.853Z,100697.19
2024-05-09T11:38:38.126Z,100678.88
2024-05-09T11:41:09.079Z,100685.66
2024-05-09T11:43:40.177Z,100682.41
2024-05-09T11:46:11.877Z,100681.84
2024-05-09T11:48:43.530Z,100683.97
2024-05-09T11:51:14.939Z,100692.72
2024-05-09T11:53:46.688Z,100700.00
2024-05-09T11:56:18.791Z,100706.44
2024-05-09T11:58:49.879Z,100705.22
2024-05-09T12:01:23.086Z,100698.59
2024-05-09T12:03:56.347Z,100673.78
2024-05-09T12:06:28.128Z,100710.56
2024-05-09T12:08:59.472Z,100713.03
2024-05-09T12:11:32.090Z,100719.78
2024-05-09T12:14:03.387Z,100725.22
2024-05-09T12:16:35.470Z,100714.84
2024-05-09T12:19:06.782Z,100731.44
2024-05-09T12:21:38.314Z,100723.44
2024-05-09T12:24:09.457Z,100718.06
2024-05-09T12:26:41.247Z,100728.06
2024-05-09T12:29:12.410Z,100729.38
2024-05-09T12:31:43.425Z,100734.19
2024-05-09T12:34:15.191Z,100733.69
2024-05-09T12:36:46.727Z,100737.72
2024-05-09T12:39:17.999Z,100731.69
2024-05-09T12:41:51.002Z,100745.53
2024-05-09T12:44:22.011Z,100749.94
2024-05-09T12:46:58.469Z,100740.03
2024-05-09T12:49:32.415Z,100744.97
2024-05-09T12:52:04.146Z,100746.63
2024-05-09T12:54:37.059Z,100699.88
2024-05-09T12:57:08.696Z,100732.81
2024-05-09T12:59:39.920Z,100743.66
2024-05-09T13:02:11.518Z,100745.56
2024-05-09T13:04:43.153Z,100746.06
2024-05-09T13:07:14.845Z,100745.03
2024-05-09T13:09:46.203Z,100737.66
2024-05-09T13:12:17.057Z,100749.69
2024-05-09T13:14:48.363Z,100748.84
2024-05-09T13:17:20.562Z,100751.84
2024-05-09T13:19:51.758Z,100750.41
2024-05-09T13:22:23.272Z,100753.00
2024-05-09T13:25:00.314Z,100751.16
2024-05-09T13:27:34.207Z,100722.34
2024-05-09T13:30:07.791Z,100749.28
2024-05-09T13:32:43.462Z,100755.34
2024-05-09T13:35:14.704Z,100760.41
2024-05-09T13:37:46.196Z,100763.44
2024-05-09T13:40:26.648Z,100756.03
2024-05-09T13:43:01.556Z,100760.72
2024-05-09T13:45:33.212Z,100758.97
2024-05-09T13:48:07.835Z,100751.78
2024-05-09T13:50:40.546Z,100764.63
2024-05-09T13:53:12.016Z,100779.03
2024-05-09T13:55:49.284Z,100760.75
2024-05-09T13:58:21.228Z,100768.03
2024-05-09T14:00:52.943Z,100773.13
2024-05-09T14:03:25.943Z,100776.59
2024-05-09T14:05:57.835Z,100783.28
2024-05-09T14:08:29.679Z,100783.47
2024-05-09T14:11:01.137Z,100771.16
2024-05-09T14:13:32.115Z,100790.03
2024-05-09T14:16:03.564Z,100784.88
2024-05-09T14:18:35.660Z,100790.84
2024-05-09T14:21:08.256Z,100789.56
2024-05-09T14:23:39.931Z,100787.09
2024-05-09T14:26:11.190Z,100780.09
2024-05-09T14:28:42.712Z,100794.28
2024-05-09T14:31:14.141Z,100797.00
2024-05-09T14:33:45.264Z,100801.06
2024-05-09T14:36:17.659Z,100808.38
2024-05-09T14:38:49.105Z,100810.97
2024-05-09T14:41:20.258Z,100821.25
2024-05-09T14:43:52.894Z,100817.91
2024-05-09T14:46:24.400Z,100821.91
2024-05-09T14:48:59.823Z,100833.84
2024-05-09T14:51:33.667Z,100834.72
2024-05-09T14:54:04.616Z,100847.28
2024-05-09T14:56:36.127Z,100856.44
2024-05-09T14:59:11.323Z,100858.09
2024-05-09T15:01:45.305Z,100864.38
2024-05-09T15:04:17.649Z,100862.00
2024-05-09T15:06:50.116Z,100869.09
2024-05-09T15:09:22.140Z,100863.34
2024-05-09T15:11:54.035Z,100863.19
2024-05-09T15:14:25.432Z,100864.88
2024-05-09T15:16:58.511Z,100863.66
2024-05-09T15:19:32.929Z,100870.59
2024-05-09T15:22:07.513Z,100883.81
2024-05-09T15:24:42.203Z,100896.03
2024-05-09T15:27:14.942Z,100892.13
2024-05-09T15:29:46.427Z,100893.63
2024-05-09T15:32:17.523Z,100898.00
2024-05-09T15:34:48.959Z,100894.06
2024-05-09T15:37:20.583Z,100890.78
2024-05-09T15:39:51.910Z,100906.63
2024-05-09T15:42:23.134Z,100899.78
2024-05-09T15:44:54.920Z,100883.34
2024-05-09T15:47:26.146Z,100890.38
2024-05-09T15:50:00.304Z,100886.22
2024-05-09T15:52:32.013Z,100888.28
2024-05-09T15:55:03.138Z,100896.03
2024-05-09T15:57:35.751Z,100887.66
2024-05-09T16:00:12.246Z,100888.75
2024-05-09T16:02:49.828Z,100884.78
2024-05-09T16:05:21.533Z,100892.28
2024-05-09T16:07:53.048Z,100884.81
2024-05-09T16:10:32.578Z,100886.34
2024-05-09T16:13:11.270Z,100889.63
2024-05-09T16:15:45.345Z,100885.72
2024-05-09T16:18:16.916Z,100896.34
2024-05-09T16:20:50.098Z,100893.03
2024-05-09T16:23:23.033Z,100895.94
2024-05-09T16:25:54.738Z,100895.94
2024-05-09T16:28:27.218Z,100894.91
2024-05-09T16:30:59.588Z,100887.81
2024-05-09T16:33:30.412Z,100882.09
2024-05-09T16:36:02.021Z,100881.38
2024-05-09T16:38:33.145Z,100869.28
2024-05-09T16:41:06.293Z,100864.13
2024-05-09T16:43:39.993Z,100858.09
2024-05-09T16:46:11.738Z,100855.13
2024-05-09T16:48:46.862Z,100855.59
2024-05-09T16:51:18.442Z,100850.16
2024-05-09T16:53:49.800Z,100836.03
2024-05-09T16:56:25.103Z,100834.97
2024-05-09T16:58:59.712Z,100833.31
2024-05-09T17:01:32.282Z,100823.53
2024-05-09T17:04:03.958Z,100827.91
2024-05-09T17:06:35.786Z,100820.81
2024-05-09T17:09:11.687Z,100799.50
2024-05-09T17:11:47.661Z,100813.13
2024-05-09T17:14:18.303Z,100806.97
2024-05-09T17:16:49.745Z,100806.66
2024-05-09T17:19:21.010Z,100792.72
2024-05-09T17:21:52.235Z,100794.44
2024-05-09T17:24:23.347Z,100783.34
2024-05-09T17:26:54.901Z,100779.88
2024-05-09T17:29:26.114Z,100781.53
2024-05-09T17:31:57.406Z,100770.69
2024-05-09T17:34:28.744Z,100754.34
2024-05-09T17:37:01.713Z,100772.78
2024-05-09T17:39:33.181Z,100764.91
2024-05-09T17:42:04.782Z,100761.56
2024-05-09T17:44:35.898Z,100775.13
2024-05-09T17:47:07.394Z,100767.44
2024-05-09T17:49:38.687Z,100760.13
2024-05-09T17:52:10.104Z,100761.19
2024-05-09T17:54:41.575Z,100758.69
2024-05-09T17:57:13.071Z,100760.34
2024-05-09T17:59:44.620Z,100754.56
2024-05-09T18:02:15.963Z,100749.97
2024-05-09T18:04:47.252Z,100744.53
2024-05-09T18:07:18.707Z,100741.69
2024-05-09T18:09:49.825Z,100740.41
2024-05-09T18:12:21.368Z,100737.94
2024-05-09T18:14:52.387Z,100735.44
2024-05-09T18:17:25.644Z,100732.13
2024-05-09T18:19:57.002Z,100724.81
2024-05-09T18:22:28.362Z,100719.59
2024-05-09T18:24:59.515Z,100725.25
2024-05-09T18:27:31.121Z,100725.47
2024-05-09T18:30:02.429Z,100711.31
2024-05-09T18:32:34.364Z,100715.09
2024-05-09T18:35:05.560Z,100716.97
2024-05-09T18:37:37.071Z,100706.34
2024-05-09T18:40:12.187Z,100699.75
2024-05-09T18:42:49.554Z,100706.81
2024-05-09T18:45:20.546Z,100705.16
2024-05-09T18:47:51.948Z,100704.53
2024-05-09T18:50:31.928Z,100703.94
2024-05-09T18:53:13.040Z,100705.00
2024-05-09T18:55:45.091Z,100699.59
2024-05-09T18:58:18.606Z,100693.09
2024-05-09T19:00:52.064Z,100698.53
2024-05-09T19:03:25.500Z,100693.56
2024-05-09T19:05:56.841Z,100693.56
2024-05-09T19:08:28.403Z,100695.66
2024-05-09T19:11:00.429Z,100690.22
2024-05-09T19:13:32.020Z,100686.94
2024-05-09T19:16:03.305Z,100683.47
2024-05-09T19:18:34.883Z,100687.59
2024-05-09T19:21:06.034Z,100649.66
2024-05-09T19:23:38.482Z,100683.47
2024-05-09T19:26:15.330Z,100678.66
2024-05-09T19:28:46.873Z,100681.38
2024-05-09T19:31:17.907Z,100673.69
2024-05-09T19:33:49.413Z,100674.72
2024-05-09T19:36:23.433Z,100673.06
2024-05-09T19:38:54.592Z,100675.78
2024-05-09T19:41:25.567Z,100668.72
2024-05-09T19:43:56.913Z,100667.66
2024-05-09T19:46:27.905Z,100662.25
2024-05-09T19:48:59.727Z,100664.97
2024-05-09T19:51:30.914Z,100651.72
2024-05-09T19:54:02.395Z,100666.22
2024-05-09T19:56:33.524Z,100662.69
2024-05-09T19:59:05.520Z,100664.19
2024-05-09T20:01:37.102Z,100664.59
2024-05-09T20:04:08.478Z,100658.63
2024-05-09T20:06:39.852Z,100673.34
2024-05-09T20:09:11.062Z,100672.28
2024-05-09T20:11:41.961Z,100670.03
2024-05-09T20:14:14.114Z,100664.06
2024-05-09T20:16:46.627Z,100682.97
2024-05-09T20:19:18.247Z,100678.84
2024-05-09T20:21:49.404Z,100687.16
2024-05-09T20:24:20.528Z,100698.59
2024-05-09T20:26:51.441Z,100692.56
2024-05-09T20:29:22.805Z,100676.84
2024-05-09T20:31:53.716Z,100697.16
2024-05-09T20:34:25.028Z,100690.09
2024-05-09T20:36:56.063Z,100695.53
2024-05-09T20:39:27.823Z,100690.94
2024-05-09T20:41:59.306Z,100684.69
2024-05-09T20:44:30.162Z,100688.47
2024-05-09T20:47:00.958Z,100691.38
2024-05-09T20:49:32.397Z,100689.09
2024-05-09T20:52:03.270Z,100696.59
2024-05-09T20:54:34.522Z,100694.94
2024-05-09T20:57:05.910Z,100688.91
2024-05-09T20:59:38.858Z,100685.16
2024-05-09T21:02:10.251Z,100690.56
2024-05-09T21:04:41.861Z,100683.50
2024-05-09T21:07:12.832Z,100686.41
2024-05-09T21:09:43.993Z,100695.59
2024-05-09T21:12:14.901Z,100691.44
2024-05-09T21:14:46.002Z,100699.34
2024-05-09T21:17:16.925Z,100697.69
2024-05-09T21:19:48.064Z,100700.63
2024-05-09T21:22:18.964Z,100705.16
2024-05-09T21:24:50.139Z,100709.75
2024-05-09T21:27:21.070Z,100711.84
2024-05-09T21:29:52.164Z,100716.44
2024-05-09T21:32:23.253Z,100721.00
2024-05-09T21:34:54.406Z,100714.16
2024-05-09T21:37:25.415Z,100725.81
2024-05-09T21:39:56.919Z,100720.25
2024-05-09T21:42:28.024Z,100733.91
2024-05-09T21:44:59.097Z,100737.69
2024-05-09T21:47:30.152Z,100746.84
2024-05-09T21:50:01.295Z,100738.13
2024-05-09T21:52:33.860Z,100738.13
2024-05-09T21:55:05.080Z,100743.97
2024-05-09T21:57:36.286Z,100745.63
2024-05-09T22:00:28.140Z,100743.16
2024-05-09T22:03:07.829Z,100743.59
2024-05-09T22:05:42.907Z,100746.06
2024-05-09T22:08:13.864Z,100740.91
2024-05-09T22:10:45.451Z,100746.94
2024-05-09T22:13:18.158Z,100751.91
2024-05-09T22:15:49.527Z,100758.56
2024-05-09T22:18:20.755Z,100752.72
2024-05-09T22:20:51.915Z,100741.91
2024-05-09T22:23:23.081Z,100743.78
2024-05-09T22:25:54.288Z,100755.66
2024-05-09T22:28:25.273Z,100751.28
2024-05-09T22:30:56.843Z,100769.19
2024-05-09T22:33:27.893Z,100753.22
2024-05-09T22:35:58.985Z,100765.25
2024-05-09T22:38:29.836Z,100770.66
2024-05-09T22:41:01.185Z,100776.28
2024-05-09T22:43:32.211Z,100776.50
2024-05-09T22:46:04.831Z,100749.94
2024-05-09T22:48:36.102Z,100775.28
2024-05-09T22:51:07.660Z,100782.34
2024-05-09T22:53:38.475Z,100787.31
2024-05-09T22:56:09.799Z,100787.31
2024-05-09T22:58:41.210Z,100796.25
2024-05-09T23:01:17.364Z,100795.22
2024-05-09T23:03:49.549Z,100796.06
2024-05-09T23:06:20.483Z,100799.22
2024-05-09T23:08:51.305Z,100795.66
2024-05-09T23:11:22.393Z,100798.56
2024-05-09T23:13:53.384Z,100802.72
2024-05-09T23:16:24.520Z,100801.06
2024-05-09T23:18:55.983Z,100807.72
2024-05-09T23:21:27.269Z,100810.66
2024-05-09T23:23:58.098Z,100813.97
2024-05-09T23:26:29.176Z,100804.00
2024-05-09T23:29:02.921Z,100813.13
2024-05-09T23:31:34.074Z,100804.41
2024-05-09T23:34:05.106Z,100826.81
2024-05-09T23:36:36.384Z,100822.22
2024-05-09T23:39:07.666Z,100818.88
2024-05-09T23:41:38.821Z,100824.69
2024-05-09T23:44:09.707Z,100830.84
2024-05-09T23:46:40.978Z,100828.34
2024-05-09T23:49:12.761Z,100834.13
2024-05-09T23:51:44.199Z,100839.94
2024-05-09T23:54:15.112Z,100840.69
2024-05-09T23:56:46.649Z,100849.00
2024-05-09T23:59:17.752Z,100849.34
